sensor_id;sensor_type;location;lat;lon;timestamp;temperature;humidity
47338;DHT22;33069;51.970;5.892;2023-05-07T00:00:38;15.10;85.90
47338;DHT22;33069;51.970;5.892;2023-05-07T00:03:05;15.30;86.00
47338;DHT22;33069;51.970;5.892;2023-05-07T00:05:32;15.40;85.20
47338;DHT22;33069;51.970;5.892;2023-05-07T00:07:57;15.40;84.70
47338;DHT22;33069;51.970;5.892;2023-05-07T00:10:23;15.30;84.60
47338;DHT22;33069;51.970;5.892;2023-05-07T00:12:49;15.30;84.90
47338;DHT22;33069;51.970;5.892;2023-05-07T00:15:15;15.20;84.80
47338;DHT22;33069;51.970;5.892;2023-05-07T00:17:40;15.20;85.00
47338;DHT22;33069;51.970;5.892;2023-05-07T00:20:07;15.10;85.00
47338;DHT22;33069;51.970;5.892;2023-05-07T00:22:33;15.00;85.00
47338;DHT22;33069;51.970;5.892;2023-05-07T00:24:58;14.90;85.20
47338;DHT22;33069;51.970;5.892;2023-05-07T00:27:25;14.80;85.40
47338;DHT22;33069;51.970;5.892;2023-05-07T00:29:51;14.80;85.60
47338;DHT22;33069;51.970;5.892;2023-05-07T00:32:16;14.80;85.90
47338;DHT22;33069;51.970;5.892;2023-05-07T00:34:43;14.90;86.00
47338;DHT22;33069;51.970;5.892;2023-05-07T00:37:08;14.90;85.80
47338;DHT22;33069;51.970;5.892;2023-05-07T00:39:35;14.90;85.80
47338;DHT22;33069;51.970;5.892;2023-05-07T00:42:01;14.80;85.60
47338;DHT22;33069;51.970;5.892;2023-05-07T00:44:28;14.80;85.60
47338;DHT22;33069;51.970;5.892;2023-05-07T00:46:54;14.80;85.70
47338;DHT22;33069;51.970;5.892;2023-05-07T00:49:20;14.80;85.70
47338;DHT22;33069;51.970;5.892;2023-05-07T00:51:46;14.80;85.60
47338;DHT22;33069;51.970;5.892;2023-05-07T00:54:13;14.70;85.50
47338;DHT22;33069;51.970;5.892;2023-05-07T00:56:39;14.70;85.60
47338;DHT22;33069;51.970;5.892;2023-05-07T00:59:05;14.70;85.60
47338;DHT22;33069;51.970;5.892;2023-05-07T01:01:32;14.70;85.60
47338;DHT22;33069;51.970;5.892;2023-05-07T01:03:57;14.80;85.50
47338;DHT22;33069;51.970;5.892;2023-05-07T01:06:25;14.80;85.30
47338;DHT22;33069;51.970;5.892;2023-05-07T01:08:52;14.80;85.20
47338;DHT22;33069;51.970;5.892;2023-05-07T01:11:18;15.00;85.20
47338;DHT22;33069;51.970;5.892;2023-05-07T01:13:47;14.90;84.50
47338;DHT22;33069;51.970;5.892;2023-05-07T01:16:14;14.80;84.70
47338;DHT22;33069;51.970;5.892;2023-05-07T01:18:40;14.90;84.70
47338;DHT22;33069;51.970;5.892;2023-05-07T01:21:07;14.90;84.70
47338;DHT22;33069;51.970;5.892;2023-05-07T01:23:35;14.90;84.40
47338;DHT22;33069;51.970;5.892;2023-05-07T01:26:01;14.80;84.70
47338;DHT22;33069;51.970;5.892;2023-05-07T01:28:27;14.60;84.80
47338;DHT22;33069;51.970;5.892;2023-05-07T01:30:55;14.80;85.30
47338;DHT22;33069;51.970;5.892;2023-05-07T01:33:22;14.60;85.20
47338;DHT22;33069;51.970;5.892;2023-05-07T01:35:51;14.70;85.30
47338;DHT22;33069;51.970;5.892;2023-05-07T01:38:18;14.60;85.50
47338;DHT22;33069;51.970;5.892;2023-05-07T01:40:46;14.60;85.50
47338;DHT22;33069;51.970;5.892;2023-05-07T01:43:12;14.50;85.70
47338;DHT22;33069;51.970;5.892;2023-05-07T01:45:38;14.50;85.70
47338;DHT22;33069;51.970;5.892;2023-05-07T01:48:05;14.50;86.00
47338;DHT22;33069;51.970;5.892;2023-05-07T01:50:32;14.60;86.10
47338;DHT22;33069;51.970;5.892;2023-05-07T01:52:59;14.60;86.00
47338;DHT22;33069;51.970;5.892;2023-05-07T01:55:25;14.50;86.00
47338;DHT22;33069;51.970;5.892;2023-05-07T01:57:50;14.50;86.00
47338;DHT22;33069;51.970;5.892;2023-05-07T02:00:16;14.60;86.20
47338;DHT22;33069;51.970;5.892;2023-05-07T02:02:43;14.70;86.10
47338;DHT22;33069;51.970;5.892;2023-05-07T02:05:08;14.70;86.00
47338;DHT22;33069;51.970;5.892;2023-05-07T02:07:35;14.70;85.80
47338;DHT22;33069;51.970;5.892;2023-05-07T02:10:00;14.70;85.60
47338;DHT22;33069;51.970;5.892;2023-05-07T02:15:39;14.50;85.90
47338;DHT22;33069;51.970;5.892;2023-05-07T02:18:06;14.60;86.00
47338;DHT22;33069;51.970;5.892;2023-05-07T02:20:32;14.60;86.00
47338;DHT22;33069;51.970;5.892;2023-05-07T02:22:58;14.60;85.90
47338;DHT22;33069;51.970;5.892;2023-05-07T02:25:24;14.70;86.10
47338;DHT22;33069;51.970;5.892;2023-05-07T02:27:49;14.70;85.90
47338;DHT22;33069;51.970;5.892;2023-05-07T02:30:15;14.80;85.60
47338;DHT22;33069;51.970;5.892;2023-05-07T02:32:41;14.90;85.40
47338;DHT22;33069;51.970;5.892;2023-05-07T02:35:07;14.80;85.10
47338;DHT22;33069;51.970;5.892;2023-05-07T02:37:33;14.80;85.20
47338;DHT22;33069;51.970;5.892;2023-05-07T02:39:58;14.80;84.80
47338;DHT22;33069;51.970;5.892;2023-05-07T02:42:24;14.90;84.60
47338;DHT22;33069;51.970;5.892;2023-05-07T02:45:24;14.80;84.40
47338;DHT22;33069;51.970;5.892;2023-05-07T02:47:50;15.00;84.30
47338;DHT22;33069;51.970;5.892;2023-05-07T02:50:16;14.80;83.80
47338;DHT22;33069;51.970;5.892;2023-05-07T02:52:42;14.90;84.00
47338;DHT22;33069;51.970;5.892;2023-05-07T02:55:08;15.00;83.80
47338;DHT22;33069;51.970;5.892;2023-05-07T02:57:33;14.90;83.60
47338;DHT22;33069;51.970;5.892;2023-05-07T02:59:59;14.80;83.60
47338;DHT22;33069;51.970;5.892;2023-05-07T03:02:35;14.80;83.80
47338;DHT22;33069;51.970;5.892;2023-05-07T03:05:01;14.80;83.80
47338;DHT22;33069;51.970;5.892;2023-05-07T03:07:27;14.80;84.00
47338;DHT22;33069;51.970;5.892;2023-05-07T03:09:52;14.80;83.90
47338;DHT22;33069;51.970;5.892;2023-05-07T03:12:19;14.80;84.20
47338;DHT22;33069;51.970;5.892;2023-05-07T03:14:44;14.90;84.00
47338;DHT22;33069;51.970;5.892;2023-05-07T03:17:10;15.00;83.80
47338;DHT22;33069;51.970;5.892;2023-05-07T03:19:36;15.00;83.80
47338;DHT22;33069;51.970;5.892;2023-05-07T03:22:01;15.10;83.40
47338;DHT22;33069;51.970;5.892;2023-05-07T03:24:27;14.90;83.20
47338;DHT22;33069;51.970;5.892;2023-05-07T03:26:53;15.00;83.50
47338;DHT22;33069;51.970;5.892;2023-05-07T03:29:18;15.00;83.50
47338;DHT22;33069;51.970;5.892;2023-05-07T03:31:45;14.90;83.00
47338;DHT22;33069;51.970;5.892;2023-05-07T03:34:10;14.90;83.40
47338;DHT22;33069;51.970;5.892;2023-05-07T03:36:36;15.00;83.50
47338;DHT22;33069;51.970;5.892;2023-05-07T03:39:02;14.80;83.20
47338;DHT22;33069;51.970;5.892;2023-05-07T03:41:28;14.80;83.30
47338;DHT22;33069;51.970;5.892;2023-05-07T03:43:55;14.70;83.40
47338;DHT22;33069;51.970;5.892;2023-05-07T03:46:20;14.70;83.60
47338;DHT22;33069;51.970;5.892;2023-05-07T03:48:46;14.70;83.70
47338;DHT22;33069;51.970;5.892;2023-05-07T03:51:12;14.60;83.80
47338;DHT22;33069;51.970;5.892;2023-05-07T03:53:37;14.70;83.90
47338;DHT22;33069;51.970;5.892;2023-05-07T03:56:03;14.60;83.90
47338;DHT22;33069;51.970;5.892;2023-05-07T03:58:29;14.80;84.00
47338;DHT22;33069;51.970;5.892;2023-05-07T04:00:55;14.70;83.60
47338;DHT22;33069;51.970;5.892;2023-05-07T04:03:20;14.70;83.50
47338;DHT22;33069;51.970;5.892;2023-05-07T04:05:46;14.80;83.50
47338;DHT22;33069;51.970;5.892;2023-05-07T04:08:12;14.80;83.30
47338;DHT22;33069;51.970;5.892;2023-05-07T04:10:38;14.70;83.50
47338;DHT22;33069;51.970;5.892;2023-05-07T04:13:03;14.60;83.80
47338;DHT22;33069;51.970;5.892;2023-05-07T04:15:29;14.80;84.10
47338;DHT22;33069;51.970;5.892;2023-05-07T04:17:55;14.60;83.50
47338;DHT22;33069;51.970;5.892;2023-05-07T04:20:20;14.70;84.20
47338;DHT22;33069;51.970;5.892;2023-05-07T04:22:46;14.60;84.00
47338;DHT22;33069;51.970;5.892;2023-05-07T04:25:12;14.60;84.30
47338;DHT22;33069;51.970;5.892;2023-05-07T04:27:37;14.50;84.40
47338;DHT22;33069;51.970;5.892;2023-05-07T04:30:03;14.60;84.90
47338;DHT22;33069;51.970;5.892;2023-05-07T04:32:30;14.60;84.90
47338;DHT22;33069;51.970;5.892;2023-05-07T04:34:58;14.70;84.50
47338;DHT22;33069;51.970;5.892;2023-05-07T04:37:25;14.80;84.70
47338;DHT22;33069;51.970;5.892;2023-05-07T04:39:51;14.70;84.50
47338;DHT22;33069;51.970;5.892;2023-05-07T04:42:17;14.70;84.80
47338;DHT22;33069;51.970;5.892;2023-05-07T04:44:44;14.70;84.90
47338;DHT22;33069;51.970;5.892;2023-05-07T04:47:11;14.60;84.90
47338;DHT22;33069;51.970;5.892;2023-05-07T04:49:38;14.50;85.10
47338;DHT22;33069;51.970;5.892;2023-05-07T04:52:04;14.50;85.40
47338;DHT22;33069;51.970;5.892;2023-05-07T04:54:30;14.60;85.60
47338;DHT22;33069;51.970;5.892;2023-05-07T04:56:56;14.70;85.60
47338;DHT22;33069;51.970;5.892;2023-05-07T04:59:21;14.70;85.50
47338;DHT22;33069;51.970;5.892;2023-05-07T05:01:47;14.80;85.20
47338;DHT22;33069;51.970;5.892;2023-05-07T05:04:13;14.80;85.00
47338;DHT22;33069;51.970;5.892;2023-05-07T05:06:39;14.80;85.30
47338;DHT22;33069;51.970;5.892;2023-05-07T05:09:04;14.70;85.30
47338;DHT22;33069;51.970;5.892;2023-05-07T05:11:31;14.70;85.30
47338;DHT22;33069;51.970;5.892;2023-05-07T05:13:58;14.80;85.50
47338;DHT22;33069;51.970;5.892;2023-05-07T05:16:24;14.80;85.20
47338;DHT22;33069;51.970;5.892;2023-05-07T05:18:50;14.80;85.00
47338;DHT22;33069;51.970;5.892;2023-05-07T05:21:17;14.80;85.30
47338;DHT22;33069;51.970;5.892;2023-05-07T05:23:43;14.80;85.30
47338;DHT22;33069;51.970;5.892;2023-05-07T05:26:09;14.70;85.40
47338;DHT22;33069;51.970;5.892;2023-05-07T05:28:34;14.80;85.80
47338;DHT22;33069;51.970;5.892;2023-05-07T05:31:00;14.80;85.40
47338;DHT22;33069;51.970;5.892;2023-05-07T05:33:26;15.00;85.20
47338;DHT22;33069;51.970;5.892;2023-05-07T05:35:52;14.80;85.00
47338;DHT22;33069;51.970;5.892;2023-05-07T05:38:18;14.90;85.20
47338;DHT22;33069;51.970;5.892;2023-05-07T05:40:44;14.80;85.10
47338;DHT22;33069;51.970;5.892;2023-05-07T05:43:10;14.90;85.50
47338;DHT22;33069;51.970;5.892;2023-05-07T05:45:35;14.80;85.20
47338;DHT22;33069;51.970;5.892;2023-05-07T05:48:01;14.90;85.40
47338;DHT22;33069;51.970;5.892;2023-05-07T05:50:27;14.80;85.30
47338;DHT22;33069;51.970;5.892;2023-05-07T05:52:53;15.00;85.50
47338;DHT22;33069;51.970;5.892;2023-05-07T05:55:19;14.90;85.20
47338;DHT22;33069;51.970;5.892;2023-05-07T05:57:45;15.00;85.50
47338;DHT22;33069;51.970;5.892;2023-05-07T06:00:11;15.00;85.00
47338;DHT22;33069;51.970;5.892;2023-05-07T06:02:37;15.20;84.70
47338;DHT22;33069;51.970;5.892;2023-05-07T06:05:03;14.90;84.70
47338;DHT22;33069;51.970;5.892;2023-05-07T06:07:29;14.80;85.00
47338;DHT22;33069;51.970;5.892;2023-05-07T06:09:55;14.90;85.20
47338;DHT22;33069;51.970;5.892;2023-05-07T06:12:21;14.80;85.20
47338;DHT22;33069;51.970;5.892;2023-05-07T06:14:46;14.90;85.50
47338;DHT22;33069;51.970;5.892;2023-05-07T06:17:12;14.80;85.40
47338;DHT22;33069;51.970;5.892;2023-05-07T06:19:38;14.80;85.50
47338;DHT22;33069;51.970;5.892;2023-05-07T06:22:04;14.90;85.60
47338;DHT22;33069;51.970;5.892;2023-05-07T06:24:30;15.00;85.70
47338;DHT22;33069;51.970;5.892;2023-05-07T06:26:55;15.10;85.40
47338;DHT22;33069;51.970;5.892;2023-05-07T06:29:21;15.00;85.00
47338;DHT22;33069;51.970;5.892;2023-05-07T06:31:47;15.10;85.10
47338;DHT22;33069;51.970;5.892;2023-05-07T06:34:12;15.20;85.00
47338;DHT22;33069;51.970;5.892;2023-05-07T06:36:40;15.30;84.60
47338;DHT22;33069;51.970;5.892;2023-05-07T06:39:06;15.30;84.40
47338;DHT22;33069;51.970;5.892;2023-05-07T06:41:38;15.30;84.30
47338;DHT22;33069;51.970;5.892;2023-05-07T06:44:04;15.40;84.60
47338;DHT22;33069;51.970;5.892;2023-05-07T06:46:30;15.50;84.50
47338;DHT22;33069;51.970;5.892;2023-05-07T06:48:56;15.50;84.40
47338;DHT22;33069;51.970;5.892;2023-05-07T06:51:22;15.70;84.10
47338;DHT22;33069;51.970;5.892;2023-05-07T06:53:48;15.70;83.50
47338;DHT22;33069;51.970;5.892;2023-05-07T06:56:14;15.90;83.30
47338;DHT22;33069;51.970;5.892;2023-05-07T06:58:39;15.80;82.90
47338;DHT22;33069;51.970;5.892;2023-05-07T07:01:05;15.60;83.00
47338;DHT22;33069;51.970;5.892;2023-05-07T07:03:31;15.90;83.30
47338;DHT22;33069;51.970;5.892;2023-05-07T07:05:57;16.10;82.00
47338;DHT22;33069;51.970;5.892;2023-05-07T07:08:22;16.00;82.30
47338;DHT22;33069;51.970;5.892;2023-05-07T07:10:48;16.00;82.20
47338;DHT22;33069;51.970;5.892;2023-05-07T07:13:14;16.20;81.70
47338;DHT22;33069;51.970;5.892;2023-05-07T07:15:40;16.10;81.90
47338;DHT22;33069;51.970;5.892;2023-05-07T07:18:06;16.00;81.50
47338;DHT22;33069;51.970;5.892;2023-05-07T07:20:32;16.00;81.80
47338;DHT22;33069;51.970;5.892;2023-05-07T07:22:57;16.00;81.60
47338;DHT22;33069;51.970;5.892;2023-05-07T07:25:23;15.90;81.70
47338;DHT22;33069;51.970;5.892;2023-05-07T07:27:49;16.00;81.50
47338;DHT22;33069;51.970;5.892;2023-05-07T07:30:15;16.10;81.90
47338;DHT22;33069;51.970;5.892;2023-05-07T07:32:41;16.10;81.70
47338;DHT22;33069;51.970;5.892;2023-05-07T07:35:07;16.10;81.50
47338;DHT22;33069;51.970;5.892;2023-05-07T07:37:33;16.20;80.90
47338;DHT22;33069;51.970;5.892;2023-05-07T07:39:59;16.10;80.80
47338;DHT22;33069;51.970;5.892;2023-05-07T07:42:25;16.20;81.00
47338;DHT22;33069;51.970;5.892;2023-05-07T07:44:50;16.40;80.90
47338;DHT22;33069;51.970;5.892;2023-05-07T07:47:16;16.50;80.50
47338;DHT22;33069;51.970;5.892;2023-05-07T07:49:42;16.70;80.00
47338;DHT22;33069;51.970;5.892;2023-05-07T07:52:08;16.50;79.30
47338;DHT22;33069;51.970;5.892;2023-05-07T07:54:33;16.80;78.80
47338;DHT22;33069;51.970;5.892;2023-05-07T07:56:59;16.80;78.80
47338;DHT22;33069;51.970;5.892;2023-05-07T07:59:25;16.80;78.70
47338;DHT22;33069;51.970;5.892;2023-05-07T08:01:50;16.80;78.70
47338;DHT22;33069;51.970;5.892;2023-05-07T08:04:17;16.80;79.00
47338;DHT22;33069;51.970;5.892;2023-05-07T08:06:43;16.80;79.10
47338;DHT22;33069;51.970;5.892;2023-05-07T08:09:09;17.00;79.30
47338;DHT22;33069;51.970;5.892;2023-05-07T08:11:35;16.90;78.60
47338;DHT22;33069;51.970;5.892;2023-05-07T08:14:01;17.10;79.30
47338;DHT22;33069;51.970;5.892;2023-05-07T08:16:26;17.20;78.80
47338;DHT22;33069;51.970;5.892;2023-05-07T08:18:53;17.20;78.60
47338;DHT22;33069;51.970;5.892;2023-05-07T08:21:19;17.30;78.00
47338;DHT22;33069;51.970;5.892;2023-05-07T08:23:45;17.10;78.20
47338;DHT22;33069;51.970;5.892;2023-05-07T08:26:11;16.90;79.00
47338;DHT22;33069;51.970;5.892;2023-05-07T08:28:37;17.20;79.10
47338;DHT22;33069;51.970;5.892;2023-05-07T08:31:02;17.30;78.00
47338;DHT22;33069;51.970;5.892;2023-05-07T08:33:28;17.30;78.00
47338;DHT22;33069;51.970;5.892;2023-05-07T08:35:54;17.20;78.70
47338;DHT22;33069;51.970;5.892;2023-05-07T08:38:20;17.20;78.50
47338;DHT22;33069;51.970;5.892;2023-05-07T08:40:45;17.30;78.40
47338;DHT22;33069;51.970;5.892;2023-05-07T08:43:15;17.20;78.50
47338;DHT22;33069;51.970;5.892;2023-05-07T08:45:44;17.30;78.60
47338;DHT22;33069;51.970;5.892;2023-05-07T08:48:17;17.40;78.80
47338;DHT22;33069;51.970;5.892;2023-05-07T08:50:43;17.70;77.30
47338;DHT22;33069;51.970;5.892;2023-05-07T08:53:09;17.50;76.50
47338;DHT22;33069;51.970;5.892;2023-05-07T08:55:34;17.40;76.90
47338;DHT22;33069;51.970;5.892;2023-05-07T08:58:00;17.60;76.50
47338;DHT22;33069;51.970;5.892;2023-05-07T09:00:27;17.60;77.20
47338;DHT22;33069;51.970;5.892;2023-05-07T09:02:53;17.40;77.30
47338;DHT22;33069;51.970;5.892;2023-05-07T09:05:19;17.30;76.80
47338;DHT22;33069;51.970;5.892;2023-05-07T09:07:48;17.50;77.20
47338;DHT22;33069;51.970;5.892;2023-05-07T09:10:14;17.50;76.50
47338;DHT22;33069;51.970;5.892;2023-05-07T09:12:40;17.50;77.40
47338;DHT22;33069;51.970;5.892;2023-05-07T09:15:06;17.60;76.90
47338;DHT22;33069;51.970;5.892;2023-05-07T09:17:32;18.00;76.70
47338;DHT22;33069;51.970;5.892;2023-05-07T09:20:05;18.20;75.80
47338;DHT22;33069;51.970;5.892;2023-05-07T09:22:32;18.50;75.30
47338;DHT22;33069;51.970;5.892;2023-05-07T09:24:58;18.80;74.80
47338;DHT22;33069;51.970;5.892;2023-05-07T09:27:25;18.80;74.00
47338;DHT22;33069;51.970;5.892;2023-05-07T09:29:51;18.80;73.00
47338;DHT22;33069;51.970;5.892;2023-05-07T09:32:17;18.60;73.00
47338;DHT22;33069;51.970;5.892;2023-05-07T09:34:43;18.50;73.50
47338;DHT22;33069;51.970;5.892;2023-05-07T09:37:10;18.60;73.80
47338;DHT22;33069;51.970;5.892;2023-05-07T09:39:45;18.70;73.60
47338;DHT22;33069;51.970;5.892;2023-05-07T09:42:12;18.90;72.50
47338;DHT22;33069;51.970;5.892;2023-05-07T09:44:38;18.80;73.20
47338;DHT22;33069;51.970;5.892;2023-05-07T09:47:05;19.10;72.40
47338;DHT22;33069;51.970;5.892;2023-05-07T09:49:34;18.80;73.20
47338;DHT22;33069;51.970;5.892;2023-05-07T09:52:03;19.10;73.20
47338;DHT22;33069;51.970;5.892;2023-05-07T09:54:29;19.30;72.40
47338;DHT22;33069;51.970;5.892;2023-05-07T09:56:57;19.20;72.30
47338;DHT22;33069;51.970;5.892;2023-05-07T09:59:24;19.60;71.50
47338;DHT22;33069;51.970;5.892;2023-05-07T10:01:52;19.60;70.90
47338;DHT22;33069;51.970;5.892;2023-05-07T10:04:19;19.70;70.60
47338;DHT22;33069;51.970;5.892;2023-05-07T10:06:46;19.80;70.70
47338;DHT22;33069;51.970;5.892;2023-05-07T10:09:12;20.00;69.90
47338;DHT22;33069;51.970;5.892;2023-05-07T10:11:39;20.10;69.00
47338;DHT22;33069;51.970;5.892;2023-05-07T10:14:05;20.50;68.60
47338;DHT22;33069;51.970;5.892;2023-05-07T10:16:34;20.80;68.00
47338;DHT22;33069;51.970;5.892;2023-05-07T10:19:05;20.80;67.60
47338;DHT22;33069;51.970;5.892;2023-05-07T10:21:36;21.20;66.50
47338;DHT22;33069;51.970;5.892;2023-05-07T10:26:28;21.30;65.90
47338;DHT22;33069;51.970;5.892;2023-05-07T10:28:59;21.30;64.60
47338;DHT22;33069;51.970;5.892;2023-05-07T10:31:54;21.20;66.40
47338;DHT22;33069;51.970;5.892;2023-05-07T10:34:24;21.30;65.90
47338;DHT22;33069;51.970;5.892;2023-05-07T10:36:52;21.20;66.00
47338;DHT22;33069;51.970;5.892;2023-05-07T10:39:19;21.00;67.50
47338;DHT22;33069;51.970;5.892;2023-05-07T10:41:47;21.00;67.20
47338;DHT22;33069;51.970;5.892;2023-05-07T10:44:25;21.30;65.70
47338;DHT22;33069;51.970;5.892;2023-05-07T10:47:09;21.30;64.80
47338;DHT22;33069;51.970;5.892;2023-05-07T10:49:36;20.80;67.40
47338;DHT22;33069;51.970;5.892;2023-05-07T10:52:22;20.50;67.20
47338;DHT22;33069;51.970;5.892;2023-05-07T10:57:45;21.10;67.40
47338;DHT22;33069;51.970;5.892;2023-05-07T11:05:31;21.60;64.80
47338;DHT22;33069;51.970;5.892;2023-05-07T11:08:01;21.30;66.50
47338;DHT22;33069;51.970;5.892;2023-05-07T11:10:53;21.20;65.20
47338;DHT22;33069;51.970;5.892;2023-05-07T11:16:23;21.80;63.80
47338;DHT22;33069;51.970;5.892;2023-05-07T11:18:51;21.80;64.10
47338;DHT22;33069;51.970;5.892;2023-05-07T11:21:46;21.80;63.10
47338;DHT22;33069;51.970;5.892;2023-05-07T11:24:13;21.90;63.40
47338;DHT22;33069;51.970;5.892;2023-05-07T11:26:48;22.20;62.40
47338;DHT22;33069;51.970;5.892;2023-05-07T11:29:19;22.30;61.20
47338;DHT22;33069;51.970;5.892;2023-05-07T11:31:54;22.30;61.90
47338;DHT22;33069;51.970;5.892;2023-05-07T11:34:25;22.60;60.30
47338;DHT22;33069;51.970;5.892;2023-05-07T11:36:52;22.30;61.40
47338;DHT22;33069;51.970;5.892;2023-05-07T11:41:54;22.30;61.00
47338;DHT22;33069;51.970;5.892;2023-05-07T11:44:20;22.30;61.20
47338;DHT22;33069;51.970;5.892;2023-05-07T11:46:45;22.30;61.70
47338;DHT22;33069;51.970;5.892;2023-05-07T11:49:11;22.50;60.80
47338;DHT22;33069;51.970;5.892;2023-05-07T11:51:38;22.20;59.60
47338;DHT22;33069;51.970;5.892;2023-05-07T11:54:05;22.20;60.60
47338;DHT22;33069;51.970;5.892;2023-05-07T11:56:34;22.20;60.50
47338;DHT22;33069;51.970;5.892;2023-05-07T11:59:04;22.20;60.70
47338;DHT22;33069;51.970;5.892;2023-05-07T12:01:30;21.80;61.10
47338;DHT22;33069;51.970;5.892;2023-05-07T12:03:56;22.20;60.60
47338;DHT22;33069;51.970;5.892;2023-05-07T12:06:21;22.30;59.30
47338;DHT22;33069;51.970;5.892;2023-05-07T12:08:47;22.10;60.20
47338;DHT22;33069;51.970;5.892;2023-05-07T12:11:23;21.80;60.10
47338;DHT22;33069;51.970;5.892;2023-05-07T12:13:50;21.70;61.70
47338;DHT22;33069;51.970;5.892;2023-05-07T12:16:16;21.70;62.50
47338;DHT22;33069;51.970;5.892;2023-05-07T12:18:43;22.20;61.60
47338;DHT22;33069;51.970;5.892;2023-05-07T12:21:09;21.90;59.80
47338;DHT22;33069;51.970;5.892;2023-05-07T12:23:37;21.90;60.30
47338;DHT22;33069;51.970;5.892;2023-05-07T12:26:03;22.00;60.10
47338;DHT22;33069;51.970;5.892;2023-05-07T12:28:28;22.10;59.70
47338;DHT22;33069;51.970;5.892;2023-05-07T12:30:57;22.20;59.70
47338;DHT22;33069;51.970;5.892;2023-05-07T12:33:26;22.10;60.30
47338;DHT22;33069;51.970;5.892;2023-05-07T12:35:55;21.80;59.50
47338;DHT22;33069;51.970;5.892;2023-05-07T12:38:21;21.50;61.00
47338;DHT22;33069;51.970;5.892;2023-05-07T12:40:49;21.40;61.90
47338;DHT22;33069;51.970;5.892;2023-05-07T12:43:27;21.50;63.30
47338;DHT22;33069;51.970;5.892;2023-05-07T12:45:58;21.70;63.30
47338;DHT22;33069;51.970;5.892;2023-05-07T12:48:25;21.80;63.30
47338;DHT22;33069;51.970;5.892;2023-05-07T12:50:57;22.00;63.40
47338;DHT22;33069;51.970;5.892;2023-05-07T12:53:25;22.10;61.90
47338;DHT22;33069;51.970;5.892;2023-05-07T12:55:56;22.40;60.90
47338;DHT22;33069;51.970;5.892;2023-05-07T12:58:30;22.30;60.80
47338;DHT22;33069;51.970;5.892;2023-05-07T13:00:59;22.10;61.30
47338;DHT22;33069;51.970;5.892;2023-05-07T13:03:31;21.80;60.10
47338;DHT22;33069;51.970;5.892;2023-05-07T13:06:08;21.70;61.50
47338;DHT22;33069;51.970;5.892;2023-05-07T13:08:40;21.80;62.30
47338;DHT22;33069;51.970;5.892;2023-05-07T13:11:07;22.00;61.70
47338;DHT22;33069;51.970;5.892;2023-05-07T13:13:34;22.20;61.70
47338;DHT22;33069;51.970;5.892;2023-05-07T13:16:01;22.10;59.80
47338;DHT22;33069;51.970;5.892;2023-05-07T13:18:29;21.70;60.50
47338;DHT22;33069;51.970;5.892;2023-05-07T13:20:55;21.70;60.30
47338;DHT22;33069;51.970;5.892;2023-05-07T13:23:20;22.00;60.60
47338;DHT22;33069;51.970;5.892;2023-05-07T13:25:47;22.00;60.60
47338;DHT22;33069;51.970;5.892;2023-05-07T13:28:12;22.20;60.10
47338;DHT22;33069;51.970;5.892;2023-05-07T13:30:38;22.30;60.90
47338;DHT22;33069;51.970;5.892;2023-05-07T13:33:04;22.20;61.00
47338;DHT22;33069;51.970;5.892;2023-05-07T13:35:30;22.70;59.20
47338;DHT22;33069;51.970;5.892;2023-05-07T13:37:55;22.30;58.60
47338;DHT22;33069;51.970;5.892;2023-05-07T13:40:22;22.20;59.30
47338;DHT22;33069;51.970;5.892;2023-05-07T13:42:48;22.40;59.40
47338;DHT22;33069;51.970;5.892;2023-05-07T13:45:14;22.10;59.50
47338;DHT22;33069;51.970;5.892;2023-05-07T13:47:41;22.20;59.10
47338;DHT22;33069;51.970;5.892;2023-05-07T13:50:08;22.30;57.90
47338;DHT22;33069;51.970;5.892;2023-05-07T13:52:34;22.20;59.00
47338;DHT22;33069;51.970;5.892;2023-05-07T13:55:00;22.60;58.10
47338;DHT22;33069;51.970;5.892;2023-05-07T13:57:26;22.50;58.00
47338;DHT22;33069;51.970;5.892;2023-05-07T13:59:51;22.60;59.60
47338;DHT22;33069;51.970;5.892;2023-05-07T14:02:17;23.00;59.70
47338;DHT22;33069;51.970;5.892;2023-05-07T14:04:42;23.30;57.40
47338;DHT22;33069;51.970;5.892;2023-05-07T14:07:08;23.50;55.20
47338;DHT22;33069;51.970;5.892;2023-05-07T14:09:34;23.70;55.00
47338;DHT22;33069;51.970;5.892;2023-05-07T14:12:00;23.70;55.40
47338;DHT22;33069;51.970;5.892;2023-05-07T14:14:26;23.40;55.10
47338;DHT22;33069;51.970;5.892;2023-05-07T14:16:52;23.30;56.10
47338;DHT22;33069;51.970;5.892;2023-05-07T14:19:18;23.30;55.50
47338;DHT22;33069;51.970;5.892;2023-05-07T14:21:44;23.40;54.90
47338;DHT22;33069;51.970;5.892;2023-05-07T14:24:10;23.20;54.70
47338;DHT22;33069;51.970;5.892;2023-05-07T14:26:35;23.10;55.60
47338;DHT22;33069;51.970;5.892;2023-05-07T14:29:02;23.00;55.40
47338;DHT22;33069;51.970;5.892;2023-05-07T14:31:28;23.00;56.40
47338;DHT22;33069;51.970;5.892;2023-05-07T14:33:53;23.20;56.40
47338;DHT22;33069;51.970;5.892;2023-05-07T14:36:20;23.20;55.20
47338;DHT22;33069;51.970;5.892;2023-05-07T14:38:47;22.60;56.90
47338;DHT22;33069;51.970;5.892;2023-05-07T14:41:12;22.50;58.70
47338;DHT22;33069;51.970;5.892;2023-05-07T14:43:38;22.50;57.30
47338;DHT22;33069;51.970;5.892;2023-05-07T14:46:04;22.30;58.20
47338;DHT22;33069;51.970;5.892;2023-05-07T14:48:30;22.30;58.60
47338;DHT22;33069;51.970;5.892;2023-05-07T14:50:55;21.80;60.80
47338;DHT22;33069;51.970;5.892;2023-05-07T14:53:22;21.90;61.30
47338;DHT22;33069;51.970;5.892;2023-05-07T14:55:48;22.10;60.30
47338;DHT22;33069;51.970;5.892;2023-05-07T14:58:14;21.80;61.10
47338;DHT22;33069;51.970;5.892;2023-05-07T15:00:40;21.80;61.10
47338;DHT22;33069;51.970;5.892;2023-05-07T15:03:07;21.60;61.10
47338;DHT22;33069;51.970;5.892;2023-05-07T15:05:33;21.30;59.70
47338;DHT22;33069;51.970;5.892;2023-05-07T15:07:59;21.00;60.10
47338;DHT22;33069;51.970;5.892;2023-05-07T15:10:25;21.10;59.70
47338;DHT22;33069;51.970;5.892;2023-05-07T15:12:51;21.30;57.80
47338;DHT22;33069;51.970;5.892;2023-05-07T15:15:17;21.30;57.80
47338;DHT22;33069;51.970;5.892;2023-05-07T15:17:43;21.30;58.50
47338;DHT22;33069;51.970;5.892;2023-05-07T15:20:08;21.70;56.70
47338;DHT22;33069;51.970;5.892;2023-05-07T15:22:35;21.30;58.60
47338;DHT22;33069;51.970;5.892;2023-05-07T15:25:03;21.70;57.30
47338;DHT22;33069;51.970;5.892;2023-05-07T15:27:30;21.70;57.20
47338;DHT22;33069;51.970;5.892;2023-05-07T15:29:56;21.80;57.70
47338;DHT22;33069;51.970;5.892;2023-05-07T15:32:22;21.30;56.70
47338;DHT22;33069;51.970;5.892;2023-05-07T15:34:48;20.80;58.40
47338;DHT22;33069;51.970;5.892;2023-05-07T15:37:14;20.30;61.10
47338;DHT22;33069;51.970;5.892;2023-05-07T15:39:39;20.10;63.60
47338;DHT22;33069;51.970;5.892;2023-05-07T15:42:05;20.20;61.60
47338;DHT22;33069;51.970;5.892;2023-05-07T15:44:31;19.70;63.30
47338;DHT22;33069;51.970;5.892;2023-05-07T15:46:59;19.30;65.10